Stronghurst, IL

12:15 PM CST on December 03, 2016 (GMT -0600)
Burgus Computers | | Change Station

Elev 680 ft 40.74 °N, 90.91 °W | Updated 2 seconds ago

Overcast
Overcast
37.5 °F
Feels Like 34 °F
N
5.0
Wind Variable Wind from East
Gusts 7.0 mph

Today
High -- | Low -- °F
--% Chance of Precip.
Yesterday
High -- | Low -- °F
Precip. -- in
Pressure 30.38 in
Visibility 10.0 miles
Clouds Overcast 3000 ft
Windchill 34 °F
Dew Point 30 °F
Humidity 73%
Rainfall 0.00 in
Snow Depth Not available.
7:10 AM 4:36 PM
Waxing Crescent, 16% visible
METAR KBRL 031753Z AUTO 12005KT 10SM OVC030 03/M02 A3035 RMK AO2 SLP285 T00281022 10028 20006 58001
Pressure 30.38 in
Visibility 10.0 miles
Clouds Overcast 3000 ft
Windchill 34 °F
Dew Point 30 °F
Humidity 73%
Rainfall 0.00 in
Snow Depth Not available.
7:10 AM 4:36 PM
Waxing Crescent, 16% visible
METAR KBRL 031753Z AUTO 12005KT 10SM OVC030 03/M02 A3035 RMK AO2 SLP285 T00281022 10028 20006 58001

10-Day Weather Forecast

Almanac

Astronomy

Dec. 03, 2016 Rise Set
Actual Time
Civil Twilight
Nautical Twilight
Astronomical Twilight
Moon
Length of Visible Light
Length of Day
Tomorrow will be .
, % of the Moon is Illuminated

Today's Extremes

State Highs State Lows

Community

WunderPhotos

Upload Photos

1,955,457 photos uploaded!

WunderBlog® & News

Nearby

Air Quality

  Air Quality AQ Index Pollutant
Not available.

Snow Depth

Station Depth Elevation

Earthquake Activity

City Distance Mag. Time & Date
Minimum magnitude displayed is 2.5.

Coastal Water Temperatures

Place Temperature

Stations

Nearby Weather Stations

Station Location Temp. Windchill Dew Point Humidity Wind Precip. Elev Updated Type
                   

Watches & Warnings

There are currently no watches in effect.